sensor_id;sensor_type;location;lat;lon;timestamp;pressure;altitude;pressure_sealevel;temperature;humidity
47104;BME280;32853;52.164;5.400;2023-07-08T00:03:35;101446.09;;;21.85;55.73
47104;BME280;32853;52.164;5.400;2023-07-08T00:06:01;101611.63;;;22.82;56.24
47104;BME280;32853;52.164;5.400;2023-07-08T00:08:28;101575.66;;;22.54;56.50
47104;BME280;32853;52.164;5.400;2023-07-08T00:11:12;101427.31;;;21.64;56.56
47104;BME280;32853;52.164;5.400;2023-07-08T00:13:43;101449.50;;;21.87;57.12
47104;BME280;32853;52.164;5.400;2023-07-08T00:16:16;101607.78;;;22.75;57.91
47104;BME280;32853;52.164;5.400;2023-07-08T00:18:54;101444.34;;;21.72;57.76
47104;BME280;32853;52.164;5.400;2023-07-08T00:21:25;101537.94;;;22.37;57.15
47104;BME280;32853;52.164;5.400;2023-07-08T00:23:51;101612.13;;;22.65;57.74
47104;BME280;32853;52.164;5.400;2023-07-08T00:26:28;101610.91;;;22.69;58.81
47104;BME280;32853;52.164;5.400;2023-07-08T00:28:55;101685.78;;;23.12;58.12
47104;BME280;32853;52.164;5.400;2023-07-08T00:31:22;101422.06;;;21.51;59.30
47104;BME280;32853;52.164;5.400;2023-07-08T00:33:54;101694.38;;;22.94;59.30
47104;BME280;32853;52.164;5.400;2023-07-08T00:36:23;101676.19;;;22.99;59.25
47104;BME280;32853;52.164;5.400;2023-07-08T00:38:59;101596.59;;;22.48;59.33
47104;BME280;32853;52.164;5.400;2023-07-08T00:41:33;101418.38;;;21.30;59.85
47104;BME280;32853;52.164;5.400;2023-07-08T00:43:59;101693.66;;;23.03;60.08
47104;BME280;32853;52.164;5.400;2023-07-08T00:52:16;101669.81;;;22.66;60.69
47104;BME280;32853;52.164;5.400;2023-07-08T00:54:42;101636.47;;;22.49;61.36
47104;BME280;32853;52.164;5.400;2023-07-08T00:57:08;101619.09;;;22.21;61.54
47104;BME280;32853;52.164;5.400;2023-07-08T00:59:45;101565.22;;;21.94;62.02
47104;BME280;32853;52.164;5.400;2023-07-08T01:02:14;101578.50;;;21.83;62.99
47104;BME280;32853;52.164;5.400;2023-07-08T01:07:26;101383.44;;;20.75;63.86
47104;BME280;32853;52.164;5.400;2023-07-08T01:09:58;101407.06;;;20.91;64.40
47104;BME280;32853;52.164;5.400;2023-07-08T01:12:32;101477.56;;;21.21;64.62
47104;BME280;32853;52.164;5.400;2023-07-08T01:15:01;101588.66;;;21.78;65.51
47104;BME280;32853;52.164;5.400;2023-07-08T01:17:37;101612.09;;;21.96;66.30
47104;BME280;32853;52.164;5.400;2023-07-08T01:20:04;101552.00;;;21.57;66.90
47104;BME280;32853;52.164;5.400;2023-07-08T01:22:39;101551.41;;;21.54;67.63
47104;BME280;32853;52.164;5.400;2023-07-08T01:25:11;101567.72;;;21.73;67.94
47104;BME280;32853;52.164;5.400;2023-07-08T01:27:49;101402.34;;;20.34;68.92
47104;BME280;32853;52.164;5.400;2023-07-08T01:30:18;101665.84;;;22.25;68.34
47104;BME280;32853;52.164;5.400;2023-07-08T01:32:48;101568.09;;;21.56;68.76
47104;BME280;32853;52.164;5.400;2023-07-08T01:35:15;101434.78;;;20.76;69.20
47104;BME280;32853;52.164;5.400;2023-07-08T01:38:00;101652.53;;;22.01;70.23
47104;BME280;32853;52.164;5.400;2023-07-08T01:40:36;101593.63;;;21.58;70.62
47104;BME280;32853;52.164;5.400;2023-07-08T01:43:06;101549.66;;;21.41;70.13
47104;BME280;32853;52.164;5.400;2023-07-08T01:45:40;101316.94;;;20.27;69.51
47104;BME280;32853;52.164;5.400;2023-07-08T01:48:16;101666.53;;;22.16;70.31
47104;BME280;32853;52.164;5.400;2023-07-08T01:50:57;101564.53;;;21.44;70.98
47104;BME280;32853;52.164;5.400;2023-07-08T01:53:31;101647.94;;;22.03;72.35
47104;BME280;32853;52.164;5.400;2023-07-08T01:56:04;101484.78;;;20.95;72.30
47104;BME280;32853;52.164;5.400;2023-07-08T01:58:30;101368.94;;;20.19;72.85
47104;BME280;32853;52.164;5.400;2023-07-08T02:00:56;101579.00;;;21.29;74.13
47104;BME280;32853;52.164;5.400;2023-07-08T02:03:21;101653.47;;;21.65;73.55
47104;BME280;32853;52.164;5.400;2023-07-08T02:05:47;101453.56;;;20.85;73.04
47104;BME280;32853;52.164;5.400;2023-07-08T02:08:17;101372.16;;;20.35;73.39
47104;BME280;32853;52.164;5.400;2023-07-08T02:10:44;101629.09;;;21.83;74.66
47104;BME280;32853;52.164;5.400;2023-07-08T02:13:14;101342.25;;;20.20;73.22
47104;BME280;32853;52.164;5.400;2023-07-08T02:15:40;101355.97;;;20.14;73.65
47104;BME280;32853;52.164;5.400;2023-07-08T02:18:08;101325.09;;;20.00;73.66
47104;BME280;32853;52.164;5.400;2023-07-08T02:20:34;101361.94;;;20.18;72.83
47104;BME280;32853;52.164;5.400;2023-07-08T02:23:02;101298.06;;;19.95;73.63
47104;BME280;32853;52.164;5.400;2023-07-08T02:25:28;101325.44;;;19.96;74.71
47104;BME280;32853;52.164;5.400;2023-07-08T02:27:53;101366.09;;;20.09;74.65
47104;BME280;32853;52.164;5.400;2023-07-08T02:30:26;101539.41;;;21.11;75.11
47104;BME280;32853;52.164;5.400;2023-07-08T02:32:58;101538.50;;;21.00;75.76
47104;BME280;32853;52.164;5.400;2023-07-08T02:35:30;101312.41;;;19.80;76.39
47104;BME280;32853;52.164;5.400;2023-07-08T02:38:12;101350.47;;;20.05;76.32
47104;BME280;32853;52.164;5.400;2023-07-08T02:40:41;101351.97;;;19.83;76.36
47104;BME280;32853;52.164;5.400;2023-07-08T02:43:06;101613.53;;;21.41;75.65
47104;BME280;32853;52.164;5.400;2023-07-08T02:45:32;101622.69;;;21.61;75.51
47104;BME280;32853;52.164;5.400;2023-07-08T02:47:57;101351.22;;;19.94;75.35
47104;BME280;32853;52.164;5.400;2023-07-08T02:50:23;101446.00;;;20.55;75.04
47104;BME280;32853;52.164;5.400;2023-07-08T02:52:50;101306.84;;;19.83;75.18
47104;BME280;32853;52.164;5.400;2023-07-08T02:55:15;101282.28;;;19.43;76.07
47104;BME280;32853;52.164;5.400;2023-07-08T02:57:40;101419.88;;;20.49;75.95
47104;BME280;32853;52.164;5.400;2023-07-08T03:00:06;101563.75;;;21.31;76.74
47104;BME280;32853;52.164;5.400;2023-07-08T03:02:32;101412.63;;;20.39;75.65
47104;BME280;32853;52.164;5.400;2023-07-08T03:04:57;101475.38;;;20.54;77.56
47104;BME280;32853;52.164;5.400;2023-07-08T03:07:26;101612.25;;;21.34;77.78
47104;BME280;32853;52.164;5.400;2023-07-08T03:09:54;101351.16;;;19.70;77.46
47104;BME280;32853;52.164;5.400;2023-07-08T03:12:20;101598.84;;;21.36;77.71
47104;BME280;32853;52.164;5.400;2023-07-08T03:14:57;101617.47;;;21.36;78.24
47104;BME280;32853;52.164;5.400;2023-07-08T03:17:23;101263.25;;;19.49;77.58
47104;BME280;32853;52.164;5.400;2023-07-08T03:19:51;101539.84;;;21.05;77.95
47104;BME280;32853;52.164;5.400;2023-07-08T03:22:16;101588.34;;;21.22;77.85
47104;BME280;32853;52.164;5.400;2023-07-08T03:27:32;101448.25;;;20.36;77.49
47104;BME280;32853;52.164;5.400;2023-07-08T03:29:57;101316.31;;;19.49;78.12
47104;BME280;32853;52.164;5.400;2023-07-08T03:32:23;101435.00;;;20.23;79.05
47104;BME280;32853;52.164;5.400;2023-07-08T03:34:57;101605.25;;;21.21;78.67
47104;BME280;32853;52.164;5.400;2023-07-08T03:37:30;101504.03;;;20.62;79.31
47104;BME280;32853;52.164;5.400;2023-07-08T03:39:58;101430.97;;;20.05;79.59
47104;BME280;32853;52.164;5.400;2023-07-08T03:42:24;101485.34;;;20.25;80.56
47104;BME280;32853;52.164;5.400;2023-07-08T03:44:57;101527.00;;;20.63;78.31
47104;BME280;32853;52.164;5.400;2023-07-08T03:47:23;101611.00;;;21.14;79.40
47104;BME280;32853;52.164;5.400;2023-07-08T03:49:48;101556.34;;;20.74;80.45
47104;BME280;32853;52.164;5.400;2023-07-08T03:52:23;101618.25;;;21.12;80.88
47104;BME280;32853;52.164;5.400;2023-07-08T03:54:57;101610.38;;;21.11;80.88
47104;BME280;32853;52.164;5.400;2023-07-08T03:57:23;101322.25;;;19.14;80.61
47104;BME280;32853;52.164;5.400;2023-07-08T03:59:52;101309.75;;;19.29;79.72
47104;BME280;32853;52.164;5.400;2023-07-08T04:02:17;101610.38;;;21.11;79.48
47104;BME280;32853;52.164;5.400;2023-07-08T04:04:48;101449.75;;;20.15;81.10
47104;BME280;32853;52.164;5.400;2023-07-08T04:07:17;101407.09;;;19.67;80.65
47104;BME280;32853;52.164;5.400;2023-07-08T04:09:43;101360.38;;;19.52;80.21
47104;BME280;32853;52.164;5.400;2023-07-08T04:12:12;101436.28;;;20.05;79.46
47104;BME280;32853;52.164;5.400;2023-07-08T04:14:37;101553.13;;;20.69;79.56
47104;BME280;32853;52.164;5.400;2023-07-08T04:17:07;101460.28;;;20.16;79.51
47104;BME280;32853;52.164;5.400;2023-07-08T04:19:33;101421.53;;;19.88;80.05
47104;BME280;32853;52.164;5.400;2023-07-08T04:22:05;101624.56;;;20.99;80.23
47104;BME280;32853;52.164;5.400;2023-07-08T04:24:31;101609.31;;;21.13;79.78
47104;BME280;32853;52.164;5.400;2023-07-08T04:26:58;101333.81;;;19.39;80.85
47104;BME280;32853;52.164;5.400;2023-07-08T04:29:27;101436.72;;;19.86;79.85
47104;BME280;32853;52.164;5.400;2023-07-08T04:31:53;101492.78;;;20.33;80.81
47104;BME280;32853;52.164;5.400;2023-07-08T04:34:26;101250.31;;;18.94;79.96
47104;BME280;32853;52.164;5.400;2023-07-08T04:36:51;101603.03;;;21.14;79.65
47104;BME280;32853;52.164;5.400;2023-07-08T04:39:33;101552.81;;;20.86;79.56
47104;BME280;32853;52.164;5.400;2023-07-08T04:41:58;101493.19;;;20.39;79.88
47104;BME280;32853;52.164;5.400;2023-07-08T04:44:25;101286.94;;;19.27;79.81
47104;BME280;32853;52.164;5.400;2023-07-08T04:46:56;101332.97;;;19.38;81.09
47104;BME280;32853;52.164;5.400;2023-07-08T04:49:35;101290.66;;;19.24;80.07
47104;BME280;32853;52.164;5.400;2023-07-08T04:52:07;101305.72;;;19.36;79.26
47104;BME280;32853;52.164;5.400;2023-07-08T04:54:33;101540.94;;;20.66;80.40
47104;BME280;32853;52.164;5.400;2023-07-08T04:56:58;101534.72;;;20.78;79.34
47104;BME280;32853;52.164;5.400;2023-07-08T04:59:32;101381.94;;;19.98;78.73
47104;BME280;32853;52.164;5.400;2023-07-08T05:02:07;101585.72;;;21.09;80.58
47104;BME280;32853;52.164;5.400;2023-07-08T05:04:34;101638.66;;;21.25;80.45
47104;BME280;32853;52.164;5.400;2023-07-08T05:07:09;101616.31;;;21.27;79.41
47104;BME280;32853;52.164;5.400;2023-07-08T05:09:35;101433.22;;;20.11;80.56
47104;BME280;32853;52.164;5.400;2023-07-08T05:12:04;101313.56;;;19.51;80.49
47104;BME280;32853;52.164;5.400;2023-07-08T05:14:31;101561.31;;;20.78;80.85
47104;BME280;32853;52.164;5.400;2023-07-08T05:16:56;101510.19;;;20.75;81.57
47104;BME280;32853;52.164;5.400;2023-07-08T05:19:25;101616.19;;;21.41;80.23
47104;BME280;32853;52.164;5.400;2023-07-08T05:21:50;101551.75;;;21.12;80.67
47104;BME280;32853;52.164;5.400;2023-07-08T05:24:16;101541.19;;;20.87;81.21
47104;BME280;32853;52.164;5.400;2023-07-08T05:26:41;101505.22;;;20.94;80.79
47104;BME280;32853;52.164;5.400;2023-07-08T05:29:06;101419.38;;;20.31;80.58
47104;BME280;32853;52.164;5.400;2023-07-08T05:31:33;101590.25;;;21.20;81.43
47104;BME280;32853;52.164;5.400;2023-07-08T05:33:58;101399.63;;;20.23;79.78
47104;BME280;32853;52.164;5.400;2023-07-08T05:36:24;101607.84;;;21.70;79.10
47104;BME280;32853;52.164;5.400;2023-07-08T05:38:49;101419.44;;;20.55;78.44
47104;BME280;32853;52.164;5.400;2023-07-08T05:41:14;101558.81;;;21.37;78.68
47104;BME280;32853;52.164;5.400;2023-07-08T05:43:40;101570.53;;;21.59;78.27
47104;BME280;32853;52.164;5.400;2023-07-08T05:46:08;101623.88;;;21.81;78.13
47104;BME280;32853;52.164;5.400;2023-07-08T05:48:33;101527.28;;;21.44;78.03
47104;BME280;32853;52.164;5.400;2023-07-08T05:50:59;101440.09;;;21.00;78.30
47104;BME280;32853;52.164;5.400;2023-07-08T05:53:24;101538.53;;;21.48;79.05
47104;BME280;32853;52.164;5.400;2023-07-08T05:55:50;101481.47;;;21.28;78.38
47104;BME280;32853;52.164;5.400;2023-07-08T05:58:16;101507.28;;;21.38;78.14
47104;BME280;32853;52.164;5.400;2023-07-08T06:00:42;101607.44;;;21.87;79.49
47104;BME280;32853;52.164;5.400;2023-07-08T06:03:08;101495.84;;;21.25;79.06
47104;BME280;32853;52.164;5.400;2023-07-08T06:05:33;101584.44;;;22.10;78.56
47104;BME280;32853;52.164;5.400;2023-07-08T06:07:59;101483.06;;;21.54;77.41
47104;BME280;32853;52.164;5.400;2023-07-08T06:10:24;101523.31;;;21.85;76.62
47104;BME280;32853;52.164;5.400;2023-07-08T06:12:50;101236.09;;;20.08;77.15
47104;BME280;32853;52.164;5.400;2023-07-08T06:15:15;101594.25;;;22.21;76.58
47104;BME280;32853;52.164;5.400;2023-07-08T06:17:41;101533.25;;;21.94;77.13
47104;BME280;32853;52.164;5.400;2023-07-08T06:20:07;101311.75;;;20.63;76.20
47104;BME280;32853;52.164;5.400;2023-07-08T06:22:32;101580.47;;;22.49;75.61
47104;BME280;32853;52.164;5.400;2023-07-08T06:24:58;101518.94;;;22.19;73.49
47104;BME280;32853;52.164;5.400;2023-07-08T06:27:23;101603.75;;;22.81;73.99
47104;BME280;32853;52.164;5.400;2023-07-08T06:29:50;101598.13;;;22.85;74.05
47104;BME280;32853;52.164;5.400;2023-07-08T06:32:15;101321.13;;;21.26;73.51
47104;BME280;32853;52.164;5.400;2023-07-08T06:34:41;101493.16;;;22.42;73.21
47104;BME280;32853;52.164;5.400;2023-07-08T06:37:06;101512.03;;;22.50;73.22
47104;BME280;32853;52.164;5.400;2023-07-08T06:39:32;101503.16;;;22.60;71.62
47104;BME280;32853;52.164;5.400;2023-07-08T06:41:57;101514.78;;;22.93;71.58
47104;BME280;32853;52.164;5.400;2023-07-08T06:44:25;101562.69;;;23.06;71.46
47104;BME280;32853;52.164;5.400;2023-07-08T06:46:51;101536.91;;;23.27;70.11
47104;BME280;32853;52.164;5.400;2023-07-08T06:49:16;101447.22;;;23.04;68.99
47104;BME280;32853;52.164;5.400;2023-07-08T06:51:46;101621.28;;;24.15;68.55
47104;BME280;32853;52.164;5.400;2023-07-08T06:54:23;101329.59;;;22.43;69.06
47104;BME280;32853;52.164;5.400;2023-07-08T06:57:23;101607.63;;;24.29;69.01
47104;BME280;32853;52.164;5.400;2023-07-08T06:59:48;101583.22;;;24.22;70.14
47104;BME280;32853;52.164;5.400;2023-07-08T07:02:38;101599.13;;;24.66;68.99
47104;BME280;32853;52.164;5.400;2023-07-08T07:05:15;101595.72;;;24.63;65.34
47104;BME280;32853;52.164;5.400;2023-07-08T07:07:48;101514.66;;;24.32;64.89
47104;BME280;32853;52.164;5.400;2023-07-08T07:10:28;101574.81;;;24.78;64.07
47104;BME280;32853;52.164;5.400;2023-07-08T07:12:53;101578.41;;;24.98;64.12
47104;BME280;32853;52.164;5.400;2023-07-08T07:15:25;101608.38;;;25.32;64.31
47104;BME280;32853;52.164;5.400;2023-07-08T07:17:50;101471.00;;;24.62;62.49
47104;BME280;32853;52.164;5.400;2023-07-08T07:20:16;101340.88;;;23.92;62.72
47104;BME280;32853;52.164;5.400;2023-07-08T07:22:56;101550.28;;;25.13;61.77
47104;BME280;32853;52.164;5.400;2023-07-08T07:25:22;101593.59;;;25.67;63.66
47104;BME280;32853;52.164;5.400;2023-07-08T07:27:47;101493.38;;;25.11;62.61
47104;BME280;32853;52.164;5.400;2023-07-08T07:30:13;101588.13;;;25.78;60.57
47104;BME280;32853;52.164;5.400;2023-07-08T08:08:09;101583.13;;;27.33;56.51
47104;BME280;32853;52.164;5.400;2023-07-08T08:11:07;101581.56;;;27.48;55.86
47104;BME280;32853;52.164;5.400;2023-07-08T08:13:46;101507.75;;;27.17;55.21
47104;BME280;32853;52.164;5.400;2023-07-08T08:16:34;101567.47;;;27.46;54.99
47104;BME280;32853;52.164;5.400;2023-07-08T08:19:09;101356.44;;;26.10;55.30
47104;BME280;32853;52.164;5.400;2023-07-08T08:21:36;101320.84;;;26.17;55.01
47104;BME280;32853;52.164;5.400;2023-07-08T08:24:02;101589.78;;;28.00;54.20
47104;BME280;32853;52.164;5.400;2023-07-08T08:26:38;101388.97;;;26.87;54.26
47104;BME280;32853;52.164;5.400;2023-07-08T08:29:19;101338.06;;;26.78;53.31
47104;BME280;32853;52.164;5.400;2023-07-08T08:32:17;101312.00;;;26.52;52.29
47104;BME280;32853;52.164;5.400;2023-07-08T08:35:36;101409.53;;;27.32;52.35
47104;BME280;32853;52.164;5.400;2023-07-08T08:38:21;101492.38;;;27.45;52.57
47104;BME280;32853;52.164;5.400;2023-07-08T08:52:38;101605.94;;;29.12;53.29
47104;BME280;32853;52.164;5.400;2023-07-08T09:08:56;101590.59;;;29.63;50.75
47104;BME280;32853;52.164;5.400;2023-07-08T09:14:43;101605.06;;;29.70;49.64
47104;BME280;32853;52.164;5.400;2023-07-08T09:17:30;101599.53;;;30.04;49.42
47104;BME280;32853;52.164;5.400;2023-07-08T09:23:01;101554.84;;;30.18;49.20
47104;BME280;32853;52.164;5.400;2023-07-08T09:38:21;101351.09;;;28.95;48.36
47104;BME280;32853;52.164;5.400;2023-07-08T09:54:47;101441.97;;;30.69;46.85
47104;BME280;32853;52.164;5.400;2023-07-08T10:04:54;101585.69;;;31.95;45.81
47104;BME280;32853;52.164;5.400;2023-07-08T10:07:35;101589.56;;;32.16;45.01
47104;BME280;32853;52.164;5.400;2023-07-08T10:10:07;101392.13;;;30.49;42.40
47104;BME280;32853;52.164;5.400;2023-07-08T10:12:35;101591.97;;;32.11;42.49
47104;BME280;32853;52.164;5.400;2023-07-08T10:15:21;101469.78;;;31.46;42.31
47104;BME280;32853;52.164;5.400;2023-07-08T10:17:49;101542.41;;;32.10;41.00
47104;BME280;32853;52.164;5.400;2023-07-08T10:20:18;101597.81;;;32.66;41.09
47104;BME280;32853;52.164;5.400;2023-07-08T10:23:00;101506.97;;;32.05;40.45
47104;BME280;32853;52.164;5.400;2023-07-08T10:25:42;101596.22;;;33.02;42.55
47104;BME280;32853;52.164;5.400;2023-07-08T10:28:28;101540.28;;;32.64;40.32
47104;BME280;32853;52.164;5.400;2023-07-08T10:41:53;101584.28;;;33.54;39.61
47104;BME280;32853;52.164;5.400;2023-07-08T10:49:51;101578.03;;;33.96;38.97
47104;BME280;32853;52.164;5.400;2023-07-08T10:52:46;101589.53;;;34.26;39.75
47104;BME280;32853;52.164;5.400;2023-07-08T11:00:31;101585.38;;;33.80;38.09
47104;BME280;32853;52.164;5.400;2023-07-08T11:06:13;101587.78;;;34.18;39.51
47104;BME280;32853;52.164;5.400;2023-07-08T11:08:49;101464.25;;;33.45;38.83
47104;BME280;32853;52.164;5.400;2023-07-08T11:11:39;101517.19;;;33.62;38.41
47104;BME280;32853;52.164;5.400;2023-07-08T11:14:30;101569.81;;;34.17;39.01
47104;BME280;32853;52.164;5.400;2023-07-08T11:17:11;101452.88;;;32.71;39.27
47104;BME280;32853;52.164;5.400;2023-07-08T11:19:50;101344.25;;;32.87;39.89
47104;BME280;32853;52.164;5.400;2023-07-08T11:22:21;101560.88;;;34.58;38.94
47104;BME280;32853;52.164;5.400;2023-07-08T11:24:49;101574.03;;;34.54;38.11
47104;BME280;32853;52.164;5.400;2023-07-08T11:27:36;101525.81;;;34.70;38.53
47104;BME280;32853;52.164;5.400;2023-07-08T11:30:14;101571.56;;;35.07;37.94
47104;BME280;32853;52.164;5.400;2023-07-08T11:32:47;101570.47;;;34.88;36.96
47104;BME280;32853;52.164;5.400;2023-07-08T11:35:21;101395.56;;;33.94;38.45
47104;BME280;32853;52.164;5.400;2023-07-08T11:37:48;101480.91;;;34.26;37.74
47104;BME280;32853;52.164;5.400;2023-07-08T11:40:21;101575.22;;;34.86;38.39
47104;BME280;32853;52.164;5.400;2023-07-08T11:42:50;101421.59;;;34.36;38.47
47104;BME280;32853;52.164;5.400;2023-07-08T11:45:39;101376.56;;;34.55;38.58
47104;BME280;32853;52.164;5.400;2023-07-08T11:48:27;101436.03;;;34.91;38.50
47104;BME280;32853;52.164;5.400;2023-07-08T11:50:55;101349.03;;;34.10;38.77
47104;BME280;32853;52.164;5.400;2023-07-08T11:56:00;101407.66;;;34.46;38.78
47104;BME280;32853;52.164;5.400;2023-07-08T12:07:30;101496.47;;;35.00;37.33
47104;BME280;32853;52.164;5.400;2023-07-08T12:10:05;101559.31;;;35.58;36.68
47104;BME280;32853;52.164;5.400;2023-07-08T12:12:50;101350.03;;;34.50;36.37
47104;BME280;32853;52.164;5.400;2023-07-08T12:15:29;101345.00;;;34.41;36.90
47104;BME280;32853;52.164;5.400;2023-07-08T12:18:01;101458.66;;;35.31;37.44
47104;BME280;32853;52.164;5.400;2023-07-08T12:20:32;101332.28;;;34.61;36.42
47104;BME280;32853;52.164;5.400;2023-07-08T12:22:57;101419.13;;;35.48;36.34
47104;BME280;32853;52.164;5.400;2023-07-08T12:25:31;101349.03;;;35.24;36.05
47104;BME280;32853;52.164;5.400;2023-07-08T12:27:58;101450.84;;;36.14;34.77
47104;BME280;32853;52.164;5.400;2023-07-08T12:30:25;101472.75;;;36.32;33.33
47104;BME280;32853;52.164;5.400;2023-07-08T12:32:52;101505.03;;;36.42;33.38
47104;BME280;32853;52.164;5.400;2023-07-08T12:35:33;101431.13;;;36.19;34.69
47104;BME280;32853;52.164;5.400;2023-07-08T12:38:03;101509.94;;;36.72;33.70
47104;BME280;32853;52.164;5.400;2023-07-08T12:40:31;101540.84;;;36.46;33.51
47104;BME280;32853;52.164;5.400;2023-07-08T12:42:58;101482.66;;;36.20;34.28
47104;BME280;32853;52.164;5.400;2023-07-08T12:45:27;101540.81;;;36.52;33.93
47104;BME280;32853;52.164;5.400;2023-07-08T12:47:54;101446.41;;;36.13;32.70
47104;BME280;32853;52.164;5.400;2023-07-08T12:50:20;101395.06;;;35.52;31.98
47104;BME280;32853;52.164;5.400;2023-07-08T12:52:46;101459.28;;;35.73;31.73
47104;BME280;32853;52.164;5.400;2023-07-08T12:55:13;101401.06;;;35.74;33.71
47104;BME280;32853;52.164;5.400;2023-07-08T12:57:42;101543.09;;;36.55;32.14
47104;BME280;32853;52.164;5.400;2023-07-08T13:00:15;101452.00;;;36.31;32.90
47104;BME280;32853;52.164;5.400;2023-07-08T13:03:11;101304.09;;;35.15;31.81
47104;BME280;32853;52.164;5.400;2023-07-08T13:08:34;101302.06;;;35.68;32.78
47104;BME280;32853;52.164;5.400;2023-07-08T13:11:02;101336.25;;;36.16;32.91
47104;BME280;32853;52.164;5.400;2023-07-08T13:13:39;101377.78;;;36.49;31.25
47104;BME280;32853;52.164;5.400;2023-07-08T13:16:10;101331.72;;;35.96;32.54
47104;BME280;32853;52.164;5.400;2023-07-08T13:18:47;101293.72;;;35.70;32.63
47104;BME280;32853;52.164;5.400;2023-07-08T13:21:19;101466.09;;;36.73;33.27
47104;BME280;32853;52.164;5.400;2023-07-08T13:23:54;101328.81;;;35.78;30.72
47104;BME280;32853;52.164;5.400;2023-07-08T13:29:36;101476.75;;;37.13;31.31
47104;BME280;32853;52.164;5.400;2023-07-08T13:35:25;101519.69;;;37.31;30.19
47104;BME280;32853;52.164;5.400;2023-07-08T13:38:11;101524.25;;;37.87;29.71
47104;BME280;32853;52.164;5.400;2023-07-08T13:45:55;101528.09;;;37.79;30.22
47104;BME280;32853;52.164;5.400;2023-07-08T13:51:19;101515.50;;;38.58;29.12
47104;BME280;32853;52.164;5.400;2023-07-08T13:57:11;101324.97;;;37.00;28.31
47104;BME280;32853;52.164;5.400;2023-07-08T13:59:40;101323.19;;;37.12;28.77
47104;BME280;32853;52.164;5.400;2023-07-08T14:02:27;101348.09;;;36.98;28.59
47104;BME280;32853;52.164;5.400;2023-07-08T14:04:57;101409.53;;;37.50;28.85
47104;BME280;32853;52.164;5.400;2023-07-08T14:07:29;101288.59;;;36.88;27.94
47104;BME280;32853;52.164;5.400;2023-07-08T14:10:27;101515.59;;;38.33;28.94
47104;BME280;32853;52.164;5.400;2023-07-08T14:13:16;101270.38;;;37.07;29.30
47104;BME280;32853;52.164;5.400;2023-07-08T14:18:29;101286.47;;;36.90;28.76
47104;BME280;32853;52.164;5.400;2023-07-08T14:21:06;101298.69;;;36.56;28.02
47104;BME280;32853;52.164;5.400;2023-07-08T14:26:10;101517.19;;;37.79;28.99
47104;BME280;32853;52.164;5.400;2023-07-08T16:18:53;101278.16;;;35.77;32.29
47104;BME280;32853;52.164;5.400;2023-07-08T16:27:48;101306.16;;;36.67;32.55
47104;BME280;32853;52.164;5.400;2023-07-08T16:30:20;101289.41;;;36.63;32.93
47104;BME280;32853;52.164;5.400;2023-07-08T16:32:55;101372.44;;;37.17;33.08
47104;BME280;32853;52.164;5.400;2023-07-08T16:38:10;101441.50;;;37.43;33.45
47104;BME280;32853;52.164;5.400;2023-07-08T16:44:40;101301.94;;;36.71;33.58
47104;BME280;32853;52.164;5.400;2023-07-08T16:47:20;101475.63;;;37.77;33.04
47104;BME280;32853;52.164;5.400;2023-07-08T16:49:50;101277.59;;;36.45;32.65
47104;BME280;32853;52.164;5.400;2023-07-08T16:52:32;101502.41;;;37.87;33.50
47104;BME280;32853;52.164;5.400;2023-07-08T16:55:18;101516.66;;;37.89;33.13
47104;BME280;32853;52.164;5.400;2023-07-08T16:57:46;101261.94;;;36.33;32.99
47104;BME280;32853;52.164;5.400;2023-07-08T17:00:20;101304.31;;;36.61;33.61
47104;BME280;32853;52.164;5.400;2023-07-08T17:02:52;101310.84;;;36.60;33.45
47104;BME280;32853;52.164;5.400;2023-07-08T17:05:33;101498.03;;;37.61;33.76
47104;BME280;32853;52.164;5.400;2023-07-08T17:08:15;101490.34;;;37.76;34.09
47104;BME280;32853;52.164;5.400;2023-07-08T17:18:53;101248.97;;;35.59;34.60
47104;BME280;32853;52.164;5.400;2023-07-08T17:21:32;101478.47;;;37.07;34.17
47104;BME280;32853;52.164;5.400;2023-07-08T17:23:58;101490.09;;;36.96;34.33
47104;BME280;32853;52.164;5.400;2023-07-08T17:26:59;101378.28;;;36.26;34.72
47104;BME280;32853;52.164;5.400;2023-07-08T17:41:26;101305.69;;;35.56;35.06
47104;BME280;32853;52.164;5.400;2023-07-08T17:43:55;101269.91;;;35.52;35.39
47104;BME280;32853;52.164;5.400;2023-07-08T17:46:24;101338.00;;;35.97;35.03
47104;BME280;32853;52.164;5.400;2023-07-08T17:49:00;101469.59;;;36.42;34.50
47104;BME280;32853;52.164;5.400;2023-07-08T18:45:52;101250.16;;;33.78;39.55
47104;BME280;32853;52.164;5.400;2023-07-08T18:52:24;101531.63;;;35.08;41.48
47104;BME280;32853;52.164;5.400;2023-07-08T18:55:11;101312.88;;;33.55;42.01
47104;BME280;32853;52.164;5.400;2023-07-08T18:57:37;101377.47;;;33.79;42.79
47104;BME280;32853;52.164;5.400;2023-07-08T19:00:07;101442.84;;;34.19;42.74
47104;BME280;32853;52.164;5.400;2023-07-08T19:16:11;101291.50;;;32.83;42.07
47104;BME280;32853;52.164;5.400;2023-07-08T19:18:41;101319.63;;;32.82;40.77
47104;BME280;32853;52.164;5.400;2023-07-08T19:28:19;101530.34;;;34.15;41.23
47104;BME280;32853;52.164;5.400;2023-07-08T19:43:24;101292.31;;;32.19;42.41
47104;BME280;32853;52.164;5.400;2023-07-08T19:57:49;101549.75;;;33.41;45.43
47104;BME280;32853;52.164;5.400;2023-07-08T20:00:24;101557.88;;;33.41;45.92
47104;BME280;32853;52.164;5.400;2023-07-08T20:02:56;101343.78;;;31.90;45.09
47104;BME280;32853;52.164;5.400;2023-07-08T20:05:28;101560.81;;;33.24;44.99
47104;BME280;32853;52.164;5.400;2023-07-08T20:10:52;101562.84;;;33.01;48.34
47104;BME280;32853;52.164;5.400;2023-07-08T20:13:44;101565.69;;;32.93;48.55
47104;BME280;32853;52.164;5.400;2023-07-08T20:16:16;101569.16;;;32.87;48.94
47104;BME280;32853;52.164;5.400;2023-07-08T20:18:51;101323.84;;;31.09;50.64
47104;BME280;32853;52.164;5.400;2023-07-08T20:21:41;101468.31;;;31.82;50.85